sensor_id;sensor_type;location;lat;lon;timestamp;pressure;altitude;pressure_sealevel;temperature;humidity
48824;BME280;34640;53.590;10.054;2022-07-25T00:00:14;100810.19;;;20.96;87.31
48824;BME280;34640;53.590;10.054;2022-07-25T00:02:49;100812.81;;;20.94;87.29
48824;BME280;34640;53.590;10.054;2022-07-25T00:05:22;100806.59;;;20.92;87.54
48824;BME280;34640;53.590;10.054;2022-07-25T00:07:55;100816.28;;;20.90;87.75
48824;BME280;34640;53.590;10.054;2022-07-25T00:10:30;100803.91;;;20.89;87.81
48824;BME280;34640;53.590;10.054;2022-07-25T00:13:03;100806.56;;;20.89;87.87
48824;BME280;34640;53.590;10.054;2022-07-25T00:15:36;100800.34;;;20.87;88.11
48824;BME280;34640;53.590;10.054;2022-07-25T00:18:09;100804.78;;;20.88;87.67
48824;BME280;34640;53.590;10.054;2022-07-25T00:20:42;100802.19;;;20.93;87.35
48824;BME280;34640;53.590;10.054;2022-07-25T00:23:15;100798.72;;;20.95;86.65
48824;BME280;34640;53.590;10.054;2022-07-25T00:25:50;100793.47;;;20.98;86.09
48824;BME280;34640;53.590;10.054;2022-07-25T00:28:23;100796.16;;;21.01;85.40
48824;BME280;34640;53.590;10.054;2022-07-25T00:30:56;100797.19;;;21.08;83.00
48824;BME280;34640;53.590;10.054;2022-07-25T00:33:29;100791.06;;;21.12;82.27
48824;BME280;34640;53.590;10.054;2022-07-25T00:36:02;100799.97;;;21.17;80.55
48824;BME280;34640;53.590;10.054;2022-07-25T00:38:35;100788.53;;;21.20;80.44
48824;BME280;34640;53.590;10.054;2022-07-25T00:41:09;100793.06;;;21.24;78.83
48824;BME280;34640;53.590;10.054;2022-07-25T00:43:43;100799.34;;;21.27;78.42
48824;BME280;34640;53.590;10.054;2022-07-25T00:46:16;100796.78;;;21.35;77.62
48824;BME280;34640;53.590;10.054;2022-07-25T00:48:51;100790.69;;;21.41;76.83
48824;BME280;34640;53.590;10.054;2022-07-25T00:51:24;100797.94;;;21.51;75.32
48824;BME280;34640;53.590;10.054;2022-07-25T00:53:58;100790.94;;;21.56;75.05
48824;BME280;34640;53.590;10.054;2022-07-25T00:56:32;100790.13;;;21.60;74.51
48824;BME280;34640;53.590;10.054;2022-07-25T00:59:05;100781.31;;;21.61;74.46
48824;BME280;34640;53.590;10.054;2022-07-25T01:01:39;100787.50;;;21.61;74.20
48824;BME280;34640;53.590;10.054;2022-07-25T01:04:14;100781.31;;;21.61;73.46
48824;BME280;34640;53.590;10.054;2022-07-25T01:06:47;100777.75;;;21.60;73.31
48824;BME280;34640;53.590;10.054;2022-07-25T01:09:21;100780.38;;;21.59;73.22
48824;BME280;34640;53.590;10.054;2022-07-25T01:11:55;100770.69;;;21.59;73.02
48824;BME280;34640;53.590;10.054;2022-07-25T01:14:28;100770.66;;;21.58;72.94
48824;BME280;34640;53.590;10.054;2022-07-25T01:17:01;100772.41;;;21.56;73.08
48824;BME280;34640;53.590;10.054;2022-07-25T01:19:35;100768.00;;;21.56;72.81
48824;BME280;34640;53.590;10.054;2022-07-25T01:22:09;100771.47;;;21.52;72.70
48824;BME280;34640;53.590;10.054;2022-07-25T01:24:42;100761.69;;;21.48;72.91
48824;BME280;34640;53.590;10.054;2022-07-25T01:27:15;100756.28;;;21.44;73.45
48824;BME280;34640;53.590;10.054;2022-07-25T01:29:48;100768.59;;;21.39;73.35
48824;BME280;34640;53.590;10.054;2022-07-25T01:32:21;100760.59;;;21.35;72.99
48824;BME280;34640;53.590;10.054;2022-07-25T01:34:54;100763.19;;;21.32;73.38
48824;BME280;34640;53.590;10.054;2022-07-25T01:37:28;100758.75;;;21.30;73.55
48824;BME280;34640;53.590;10.054;2022-07-25T01:40:02;100762.25;;;21.27;73.91
48824;BME280;34640;53.590;10.054;2022-07-25T01:42:36;100756.06;;;21.27;73.89
48824;BME280;34640;53.590;10.054;2022-07-25T01:45:10;100751.50;;;21.23;73.47
48824;BME280;34640;53.590;10.054;2022-07-25T01:47:43;100742.63;;;21.19;73.64
48824;BME280;34640;53.590;10.054;2022-07-25T01:50:16;100748.81;;;21.20;73.79
48824;BME280;34640;53.590;10.054;2022-07-25T01:52:51;100742.59;;;21.18;73.74
48824;BME280;34640;53.590;10.054;2022-07-25T01:55:24;100741.63;;;21.11;74.48
48824;BME280;34640;53.590;10.054;2022-07-25T01:57:59;100737.09;;;21.04;74.65
48824;BME280;34640;53.590;10.054;2022-07-25T02:00:33;100742.25;;;20.98;74.62
48824;BME280;34640;53.590;10.054;2022-07-25T02:03:06;100735.19;;;20.97;74.09
48824;BME280;34640;53.590;10.054;2022-07-25T02:05:57;100732.53;;;20.97;73.37
48824;BME280;34640;53.590;10.054;2022-07-25T02:08:32;100729.00;;;20.96;73.02
48824;BME280;34640;53.590;10.054;2022-07-25T02:11:05;100720.16;;;20.96;73.13
48824;BME280;34640;53.590;10.054;2022-07-25T02:13:38;100715.75;;;20.95;72.77
48824;BME280;34640;53.590;10.054;2022-07-25T02:16:11;100718.38;;;20.95;72.62
48824;BME280;34640;53.590;10.054;2022-07-25T02:18:44;100704.22;;;20.91;72.89
48824;BME280;34640;53.590;10.054;2022-07-25T02:21:18;100706.88;;;20.91;72.15
48824;BME280;34640;53.590;10.054;2022-07-25T02:23:53;100695.34;;;20.89;71.00
48824;BME280;34640;53.590;10.054;2022-07-25T02:26:26;100699.81;;;20.92;71.28
48824;BME280;34640;53.590;10.054;2022-07-25T02:28:59;100692.75;;;20.92;70.59
48824;BME280;34640;53.590;10.054;2022-07-25T02:31:32;100687.44;;;20.91;69.63
48824;BME280;34640;53.590;10.054;2022-07-25T02:34:05;100690.13;;;20.94;68.68
48824;BME280;34640;53.590;10.054;2022-07-25T02:36:38;100685.72;;;20.94;68.15
48824;BME280;34640;53.590;10.054;2022-07-25T02:39:13;100684.88;;;20.97;67.59
48824;BME280;34640;53.590;10.054;2022-07-25T02:41:46;100675.19;;;20.99;67.40
48824;BME280;34640;53.590;10.054;2022-07-25T02:44:19;100677.81;;;20.97;66.92
48824;BME280;34640;53.590;10.054;2022-07-25T02:46:53;100672.56;;;21.00;66.44
48824;BME280;34640;53.590;10.054;2022-07-25T02:49:26;100674.38;;;21.03;65.72
48824;BME280;34640;53.590;10.054;2022-07-25T02:51:59;100677.00;;;21.01;65.51
48824;BME280;34640;53.590;10.054;2022-07-25T02:54:34;100669.00;;;20.98;65.32
48824;BME280;34640;53.590;10.054;2022-07-25T02:57:07;100668.16;;;21.01;64.90
48824;BME280;34640;53.590;10.054;2022-07-25T02:59:39;100669.06;;;21.01;64.73
48824;BME280;34640;53.590;10.054;2022-07-25T03:02:13;100665.50;;;20.99;64.51
48824;BME280;34640;53.590;10.054;2022-07-25T03:04:46;100662.84;;;20.99;64.47
48824;BME280;34640;53.590;10.054;2022-07-25T03:07:19;100654.06;;;21.02;63.89
48824;BME280;34640;53.590;10.054;2022-07-25T03:09:53;100660.19;;;20.99;64.32
48824;BME280;34640;53.590;10.054;2022-07-25T03:12:26;100658.56;;;21.06;63.39
48824;BME280;34640;53.590;10.054;2022-07-25T03:15:00;100655.84;;;21.03;63.48
48824;BME280;34640;53.590;10.054;2022-07-25T03:17:33;100647.91;;;21.03;63.15
48824;BME280;34640;53.590;10.054;2022-07-25T03:20:08;100643.50;;;21.03;62.92
48824;BME280;34640;53.590;10.054;2022-07-25T03:22:41;100645.22;;;21.00;63.29
48824;BME280;34640;53.590;10.054;2022-07-25T03:25:15;100638.13;;;20.99;62.77
48824;BME280;34640;53.590;10.054;2022-07-25T03:27:52;100635.44;;;20.96;62.96
48824;BME280;34640;53.590;10.054;2022-07-25T03:30:27;100628.47;;;21.02;62.31
48824;BME280;34640;53.590;10.054;2022-07-25T03:33:00;100631.09;;;21.01;62.05
48824;BME280;34640;53.590;10.054;2022-07-25T03:35:33;100624.94;;;21.02;62.42
48824;BME280;34640;53.590;10.054;2022-07-25T03:38:08;100622.28;;;21.02;62.05
48824;BME280;34640;53.590;10.054;2022-07-25T03:40:43;100621.50;;;21.08;61.88
48824;BME280;34640;53.590;10.054;2022-07-25T03:43:16;100615.31;;;21.07;61.43
48824;BME280;34640;53.590;10.054;2022-07-25T03:45:49;100611.72;;;21.03;61.45
48824;BME280;34640;53.590;10.054;2022-07-25T03:48:22;100614.34;;;21.02;61.14
48824;BME280;34640;53.590;10.054;2022-07-25T03:50:55;100610.88;;;21.04;61.23
48824;BME280;34640;53.590;10.054;2022-07-25T03:53:28;100602.03;;;21.04;61.54
48824;BME280;34640;53.590;10.054;2022-07-25T03:56:03;100602.06;;;21.05;61.05
48824;BME280;34640;53.590;10.054;2022-07-25T03:58:36;100600.31;;;21.06;60.70
48824;BME280;34640;53.590;10.054;2022-07-25T04:01:09;100599.44;;;21.07;60.46
48824;BME280;34640;53.590;10.054;2022-07-25T04:03:43;100603.88;;;21.10;60.60
48824;BME280;34640;53.590;10.054;2022-07-25T04:06:16;100591.59;;;21.16;60.12
48824;BME280;34640;53.590;10.054;2022-07-25T04:08:49;100591.59;;;21.15;60.27
48824;BME280;34640;53.590;10.054;2022-07-25T04:11:23;100587.19;;;21.15;60.07
48824;BME280;34640;53.590;10.054;2022-07-25T04:13:57;100586.34;;;21.19;59.69
48824;BME280;34640;53.590;10.054;2022-07-25T04:16:30;100581.16;;;21.25;59.14
48824;BME280;34640;53.590;10.054;2022-07-25T04:19:05;100582.09;;;21.27;59.45
48824;BME280;34640;53.590;10.054;2022-07-25T04:21:39;100575.13;;;21.34;59.17
48824;BME280;34640;53.590;10.054;2022-07-25T04:24:12;100570.69;;;21.34;59.17
48824;BME280;34640;53.590;10.054;2022-07-25T04:26:46;100565.47;;;21.39;58.92
48824;BME280;34640;53.590;10.054;2022-07-25T04:29:20;100561.91;;;21.39;58.66
48824;BME280;34640;53.590;10.054;2022-07-25T04:31:52;100560.19;;;21.41;58.77
48824;BME280;34640;53.590;10.054;2022-07-25T04:34:26;100559.41;;;21.48;58.22
48824;BME280;34640;53.590;10.054;2022-07-25T04:36:59;100551.50;;;21.52;57.61
48824;BME280;34640;53.590;10.054;2022-07-25T04:39:32;100540.06;;;21.56;57.92
48824;BME280;34640;53.590;10.054;2022-07-25T04:42:07;100548.09;;;21.65;57.37
48824;BME280;34640;53.590;10.054;2022-07-25T04:44:40;100541.88;;;21.62;57.82
48824;BME280;34640;53.590;10.054;2022-07-25T04:47:13;100546.28;;;21.61;57.68
48824;BME280;34640;53.590;10.054;2022-07-25T04:49:46;100534.06;;;21.71;57.23
48824;BME280;34640;53.590;10.054;2022-07-25T04:52:19;100533.09;;;21.67;57.46
48824;BME280;34640;53.590;10.054;2022-07-25T04:54:52;100531.44;;;21.76;57.18
48824;BME280;34640;53.590;10.054;2022-07-25T04:57:27;100519.97;;;21.78;57.15
48824;BME280;34640;53.590;10.054;2022-07-25T05:00:00;100521.81;;;21.87;56.47
48824;BME280;34640;53.590;10.054;2022-07-25T05:02:33;100513.94;;;21.93;56.44
48824;BME280;34640;53.590;10.054;2022-07-25T05:05:08;100508.66;;;21.96;56.27
48824;BME280;34640;53.590;10.054;2022-07-25T05:07:55;100507.81;;;22.00;56.12
48824;BME280;34640;53.590;10.054;2022-07-25T05:10:29;100511.34;;;22.01;56.71
48824;BME280;34640;53.590;10.054;2022-07-25T05:13:03;100503.38;;;21.99;56.79
48824;BME280;34640;53.590;10.054;2022-07-25T05:15:37;100502.50;;;21.99;56.64
48824;BME280;34640;53.590;10.054;2022-07-25T05:18:10;100497.22;;;22.00;56.53
48824;BME280;34640;53.590;10.054;2022-07-25T05:20:43;100491.91;;;21.99;56.39
48824;BME280;34640;53.590;10.054;2022-07-25T05:23:16;100493.75;;;22.07;56.16
48824;BME280;34640;53.590;10.054;2022-07-25T05:25:53;100487.63;;;22.13;55.93
48824;BME280;34640;53.590;10.054;2022-07-25T05:28:27;100490.34;;;22.20;56.32
48824;BME280;34640;53.590;10.054;2022-07-25T05:31:01;100483.31;;;22.29;55.34
48824;BME280;34640;53.590;10.054;2022-07-25T05:33:34;100478.09;;;22.35;55.53
48824;BME280;34640;53.590;10.054;2022-07-25T05:36:07;100482.56;;;22.46;55.24
48824;BME280;34640;53.590;10.054;2022-07-25T05:38:40;100484.44;;;22.58;54.85
48824;BME280;34640;53.590;10.054;2022-07-25T05:41:13;100467.66;;;22.65;54.37
48824;BME280;34640;53.590;10.054;2022-07-25T05:43:48;100471.28;;;22.81;53.91
48824;BME280;34640;53.590;10.054;2022-07-25T05:46:21;100470.47;;;22.90;53.42
48824;BME280;34640;53.590;10.054;2022-07-25T05:48:56;100466.13;;;23.05;52.86
48824;BME280;34640;53.590;10.054;2022-07-25T05:51:29;100465.28;;;23.17;53.16
48824;BME280;34640;53.590;10.054;2022-07-25T05:54:03;100470.66;;;23.28;53.08
48824;BME280;34640;53.590;10.054;2022-07-25T05:56:36;100474.19;;;23.33;52.64
48824;BME280;34640;53.590;10.054;2022-07-25T05:59:11;100466.22;;;23.37;52.88
48824;BME280;34640;53.590;10.054;2022-07-25T06:01:44;100462.69;;;23.37;52.49
48824;BME280;34640;53.590;10.054;2022-07-25T06:04:17;100462.69;;;23.34;53.09
48824;BME280;34640;53.590;10.054;2022-07-25T06:06:56;100458.25;;;23.39;52.46
48824;BME280;34640;53.590;10.054;2022-07-25T06:09:29;100448.56;;;23.55;52.05
48824;BME280;34640;53.590;10.054;2022-07-25T06:12:03;100449.50;;;23.67;51.76
48824;BME280;34640;53.590;10.054;2022-07-25T06:14:38;100450.41;;;23.71;51.57
48824;BME280;34640;53.590;10.054;2022-07-25T06:17:10;100439.75;;;23.82;51.37
48824;BME280;34640;53.590;10.054;2022-07-25T06:19:43;100445.09;;;24.41;50.55
48824;BME280;34640;53.590;10.054;2022-07-25T06:22:16;100441.53;;;24.54;50.04
48824;BME280;34640;53.590;10.054;2022-07-25T06:24:53;100434.44;;;24.38;50.57
48824;BME280;34640;53.590;10.054;2022-07-25T06:27:26;100433.53;;;24.24;51.02
48824;BME280;34640;53.590;10.054;2022-07-25T06:30:02;100430.03;;;24.08;51.35
48824;BME280;34640;53.590;10.054;2022-07-25T06:32:35;100429.09;;;24.24;51.37
48824;BME280;34640;53.590;10.054;2022-07-25T06:35:08;100428.22;;;24.41;50.91
48824;BME280;34640;53.590;10.054;2022-07-25T06:37:42;100431.69;;;24.72;50.00
48824;BME280;34640;53.590;10.054;2022-07-25T06:40:14;100419.22;;;24.84;49.85
48824;BME280;34640;53.590;10.054;2022-07-25T06:42:48;100423.59;;;25.05;49.58
48824;BME280;34640;53.590;10.054;2022-07-25T06:45:22;100422.28;;;25.82;48.04
48824;BME280;34640;53.590;10.054;2022-07-25T06:47:56;100433.00;;;25.73;47.36
48824;BME280;34640;53.590;10.054;2022-07-25T06:50:29;100423.41;;;25.43;47.67
48824;BME280;34640;53.590;10.054;2022-07-25T06:53:02;100431.31;;;25.54;47.63
48824;BME280;34640;53.590;10.054;2022-07-25T06:55:35;100416.06;;;25.82;46.96
48824;BME280;34640;53.590;10.054;2022-07-25T06:58:08;100417.00;;;25.72;47.17
48824;BME280;34640;53.590;10.054;2022-07-25T07:00:42;100409.94;;;25.63;47.26
48824;BME280;34640;53.590;10.054;2022-07-25T07:03:16;100416.16;;;25.64;47.30
48824;BME280;34640;53.590;10.054;2022-07-25T07:05:49;100403.72;;;25.58;47.60
48824;BME280;34640;53.590;10.054;2022-07-25T07:08:22;100408.19;;;25.56;47.94
48824;BME280;34640;53.590;10.054;2022-07-25T07:10:56;100410.91;;;25.50;48.12
48824;BME280;34640;53.590;10.054;2022-07-25T07:13:46;100403.00;;;25.39;48.82
48824;BME280;34640;53.590;10.054;2022-07-25T07:16:19;100400.28;;;25.45;48.90
48824;BME280;34640;53.590;10.054;2022-07-25T07:18:52;100392.22;;;25.53;48.92
48824;BME280;34640;53.590;10.054;2022-07-25T07:21:26;100386.78;;;25.67;48.52
48824;BME280;34640;53.590;10.054;2022-07-25T07:23:59;100391.94;;;25.93;48.36
48824;BME280;34640;53.590;10.054;2022-07-25T07:26:33;100385.53;;;26.10;47.87
48824;BME280;34640;53.590;10.054;2022-07-25T07:29:07;100393.47;;;26.18;47.98
48824;BME280;34640;53.590;10.054;2022-07-25T07:31:40;100382.81;;;26.15;47.38
48824;BME280;34640;53.590;10.054;2022-07-25T07:34:14;100383.50;;;26.38;47.58
48824;BME280;34640;53.590;10.054;2022-07-25T07:36:49;100366.59;;;26.36;47.93
48824;BME280;34640;53.590;10.054;2022-07-25T07:39:24;100370.91;;;26.51;47.23
48824;BME280;34640;53.590;10.054;2022-07-25T07:41:59;100373.25;;;26.77;46.40
48824;BME280;34640;53.590;10.054;2022-07-25T07:44:33;100367.72;;;26.92;45.86
48824;BME280;34640;53.590;10.054;2022-07-25T07:47:06;100365.97;;;26.87;45.90
48824;BME280;34640;53.590;10.054;2022-07-25T07:49:45;100359.81;;;26.83;46.13
48824;BME280;34640;53.590;10.054;2022-07-25T07:52:21;100361.34;;;27.02;46.09
48824;BME280;34640;53.590;10.054;2022-07-25T07:54:54;100352.31;;;27.11;45.69
48824;BME280;34640;53.590;10.054;2022-07-25T07:57:44;100352.28;;;27.16;45.40
48824;BME280;34640;53.590;10.054;2022-07-25T08:00:19;100350.25;;;27.30;45.72
48824;BME280;34640;53.590;10.054;2022-07-25T08:02:54;100348.97;;;27.57;45.22
48824;BME280;34640;53.590;10.054;2022-07-25T08:05:29;100342.38;;;27.76;44.88
48824;BME280;34640;53.590;10.054;2022-07-25T08:08:04;100339.47;;;27.90;44.62
48824;BME280;34640;53.590;10.054;2022-07-25T08:10:39;100343.75;;;28.02;43.76
48824;BME280;34640;53.590;10.054;2022-07-25T08:13:14;100336.38;;;28.13;43.46
48824;BME280;34640;53.590;10.054;2022-07-25T08:15:51;100331.69;;;28.27;43.89
48824;BME280;34640;53.590;10.054;2022-07-25T08:18:25;100325.06;;;28.46;42.60
48824;BME280;34640;53.590;10.054;2022-07-25T08:21:01;100323.56;;;28.73;42.20
48824;BME280;34640;53.590;10.054;2022-07-25T08:23:37;100327.81;;;28.86;42.23
48824;BME280;34640;53.590;10.054;2022-07-25T08:26:10;100328.53;;;28.93;42.30
48824;BME280;34640;53.590;10.054;2022-07-25T08:28:45;100326.06;;;29.23;41.43
48824;BME280;34640;53.590;10.054;2022-07-25T08:31:31;100327.25;;;30.80;38.17
48824;BME280;34640;53.590;10.054;2022-07-25T08:34:04;100338.53;;;32.52;35.34
48824;BME280;34640;53.590;10.054;2022-07-25T08:36:38;100343.25;;;34.24;32.19
48824;BME280;34640;53.590;10.054;2022-07-25T08:39:11;100342.06;;;34.70;31.29
48824;BME280;34640;53.590;10.054;2022-07-25T08:41:45;100339.06;;;34.97;30.76
48824;BME280;34640;53.590;10.054;2022-07-25T08:44:19;100338.94;;;35.55;29.47
48824;BME280;34640;53.590;10.054;2022-07-25T08:46:55;100335.50;;;35.32;29.53
48824;BME280;34640;53.590;10.054;2022-07-25T08:49:35;100327.91;;;34.84;30.24
48824;BME280;34640;53.590;10.054;2022-07-25T08:52:08;100318.72;;;35.07;30.19
48824;BME280;34640;53.590;10.054;2022-07-25T08:54:41;100325.81;;;35.09;29.90
48824;BME280;34640;53.590;10.054;2022-07-25T08:57:16;100317.25;;;35.18;29.53
48824;BME280;34640;53.590;10.054;2022-07-25T08:59:50;100310.81;;;35.74;29.17
48824;BME280;34640;53.590;10.054;2022-07-25T09:02:25;100308.34;;;36.72;27.60
48824;BME280;34640;53.590;10.054;2022-07-25T09:04:58;100315.16;;;37.12;27.23
48824;BME280;34640;53.590;10.054;2022-07-25T09:07:33;100311.44;;;37.45;26.85
48824;BME280;34640;53.590;10.054;2022-07-25T09:10:14;100310.88;;;36.42;27.76
48824;BME280;34640;53.590;10.054;2022-07-25T09:12:52;100298.47;;;34.39;30.78
48824;BME280;34640;53.590;10.054;2022-07-25T09:15:27;100280.09;;;33.22;32.44
48824;BME280;34640;53.590;10.054;2022-07-25T09:18:04;100281.91;;;32.52;33.84
48824;BME280;34640;53.590;10.054;2022-07-25T09:20:43;100279.09;;;32.32;34.95
48824;BME280;34640;53.590;10.054;2022-07-25T09:23:27;100277.28;;;31.83;34.35
48824;BME280;34640;53.590;10.054;2022-07-25T09:26:02;100268.22;;;31.59;34.79
48824;BME280;34640;53.590;10.054;2022-07-25T09:28:39;100274.34;;;31.62;35.18
48824;BME280;34640;53.590;10.054;2022-07-25T09:31:14;100262.69;;;31.37;35.38
48824;BME280;34640;53.590;10.054;2022-07-25T09:33:51;100265.69;;;31.54;35.31
48824;BME280;34640;53.590;10.054;2022-07-25T09:36:27;100260.75;;;31.67;35.18
48824;BME280;34640;53.590;10.054;2022-07-25T09:39:00;100252.53;;;31.72;35.24
48824;BME280;34640;53.590;10.054;2022-07-25T09:41:38;100253.72;;;31.88;35.37
48824;BME280;34640;53.590;10.054;2022-07-25T09:44:15;100262.31;;;31.99;35.09
48824;BME280;34640;53.590;10.054;2022-07-25T09:46:49;100245.88;;;31.82;34.92
48824;BME280;34640;53.590;10.054;2022-07-25T09:49:23;100251.56;;;31.74;34.81
48824;BME280;34640;53.590;10.054;2022-07-25T09:51:59;100243.34;;;31.77;34.53
48824;BME280;34640;53.590;10.054;2022-07-25T09:54:32;100240.97;;;31.68;34.59
48824;BME280;34640;53.590;10.054;2022-07-25T09:57:06;100235.34;;;31.76;34.54
48824;BME280;34640;53.590;10.054;2022-07-25T09:59:39;100232.69;;;31.74;34.25
48824;BME280;34640;53.590;10.054;2022-07-25T10:02:20;100239.34;;;31.62;34.56
48824;BME280;34640;53.590;10.054;2022-07-25T10:05:08;100240.41;;;31.58;34.81
48824;BME280;34640;53.590;10.054;2022-07-25T10:07:46;100235.78;;;31.62;34.87
48824;BME280;34640;53.590;10.054;2022-07-25T10:10:26;100234.50;;;31.74;34.63
48824;BME280;34640;53.590;10.054;2022-07-25T10:13:02;100235.41;;;31.74;34.79
48824;BME280;34640;53.590;10.054;2022-07-25T10:15:43;100231.59;;;31.80;34.23
48824;BME280;34640;53.590;10.054;2022-07-25T10:18:18;100236.69;;;31.87;34.52
48824;BME280;34640;53.590;10.054;2022-07-25T10:20:55;100234.69;;;31.94;34.86
48824;BME280;34640;53.590;10.054;2022-07-25T10:23:58;100230.63;;;32.06;34.45
48824;BME280;34640;53.590;10.054;2022-07-25T10:26:32;100226.41;;;31.99;35.07
48824;BME280;34640;53.590;10.054;2022-07-25T10:29:07;100216.16;;;32.08;34.32
48824;BME280;34640;53.590;10.054;2022-07-25T10:31:42;100222.72;;;32.01;33.66
48824;BME280;34640;53.590;10.054;2022-07-25T10:34:27;100219.88;;;31.81;33.98
48824;BME280;34640;53.590;10.054;2022-07-25T10:37:10;100217.94;;;31.84;34.66
48824;BME280;34640;53.590;10.054;2022-07-25T10:39:45;100218.44;;;31.96;35.02
48824;BME280;34640;53.590;10.054;2022-07-25T10:42:21;100212.06;;;31.98;35.34
48824;BME280;34640;53.590;10.054;2022-07-25T10:44:54;100203.50;;;31.87;34.98
48824;BME280;34640;53.590;10.054;2022-07-25T10:47:28;100202.13;;;31.75;35.46
48824;BME280;34640;53.590;10.054;2022-07-25T10:50:02;100202.66;;;31.60;35.65
48824;BME280;34640;53.590;10.054;2022-07-25T10:53:00;100209.19;;;31.53;36.68
48824;BME280;34640;53.590;10.054;2022-07-25T10:55:38;100205.69;;;31.51;35.58
48824;BME280;34640;53.590;10.054;2022-07-25T10:58:11;100199.34;;;31.52;36.08
48824;BME280;34640;53.590;10.054;2022-07-25T11:00:49;100200.59;;;31.68;35.75
48824;BME280;34640;53.590;10.054;2022-07-25T11:03:25;100197.41;;;31.82;35.04
48824;BME280;34640;53.590;10.054;2022-07-25T11:05:58;100195.69;;;31.79;35.85
48824;BME280;34640;53.590;10.054;2022-07-25T11:08:33;100188.78;;;31.72;35.90
48824;BME280;34640;53.590;10.054;2022-07-25T11:11:06;100195.13;;;31.70;35.72
48824;BME280;34640;53.590;10.054;2022-07-25T11:13:40;100192.97;;;31.54;35.48
48824;BME280;34640;53.590;10.054;2022-07-25T11:16:15;100183.50;;;31.43;35.43
48824;BME280;34640;53.590;10.054;2022-07-25T11:18:49;100193.63;;;31.36;35.77
48824;BME280;34640;53.590;10.054;2022-07-25T11:21:22;100195.13;;;31.18;36.71
48824;BME280;34640;53.590;10.054;2022-07-25T11:23:56;100194.38;;;31.13;36.28
48824;BME280;34640;53.590;10.054;2022-07-25T11:26:29;100197.03;;;31.15;36.40
48824;BME280;34640;53.590;10.054;2022-07-25T11:29:02;100193.97;;;31.27;35.92
48824;BME280;34640;53.590;10.054;2022-07-25T11:31:36;100198.53;;;31.25;36.27
48824;BME280;34640;53.590;10.054;2022-07-25T11:34:09;100186.66;;;31.30;36.05
48824;BME280;34640;53.590;10.054;2022-07-25T11:36:42;100172.84;;;31.40;36.07
48824;BME280;34640;53.590;10.054;2022-07-25T11:39:17;100189.59;;;31.49;36.08
48824;BME280;34640;53.590;10.054;2022-07-25T11:41:59;100178.94;;;31.45;36.22
48824;BME280;34640;53.590;10.054;2022-07-25T11:44:38;100184.63;;;31.62;35.90
48824;BME280;34640;53.590;10.054;2022-07-25T11:47:22;100173.22;;;31.80;35.70
48824;BME280;34640;53.590;10.054;2022-07-25T11:49:57;100173.34;;;32.01;35.13
48824;BME280;34640;53.590;10.054;2022-07-25T11:52:33;100162.50;;;32.02;35.25
48824;BME280;34640;53.590;10.054;2022-07-25T11:55:11;100164.97;;;32.08;35.27
48824;BME280;34640;53.590;10.054;2022-07-25T11:57:46;100155.84;;;32.12;35.04
48824;BME280;34640;53.590;10.054;2022-07-25T12:00:20;100147.72;;;32.37;34.21
48824;BME280;34640;53.590;10.054;2022-07-25T12:02:53;100154.53;;;32.46;33.64
48824;BME280;34640;53.590;10.054;2022-07-25T12:05:31;100149.66;;;32.34;33.21
48824;BME280;34640;53.590;10.054;2022-07-25T12:08:09;100152.66;;;32.25;33.56
48824;BME280;34640;53.590;10.054;2022-07-25T12:10:44;100135.31;;;32.32;33.49
48824;BME280;34640;53.590;10.054;2022-07-25T12:13:22;100130.78;;;32.56;32.63
48824;BME280;34640;53.590;10.054;2022-07-25T12:15:57;100124.69;;;32.50;32.83
48824;BME280;34640;53.590;10.054;2022-07-25T12:18:30;100125.28;;;32.80;32.44
48824;BME280;34640;53.590;10.054;2022-07-25T12:21:04;100129.13;;;32.73;31.99
48824;BME280;34640;53.590;10.054;2022-07-25T12:23:37;100119.22;;;32.74;32.20
48824;BME280;34640;53.590;10.054;2022-07-25T12:26:16;100120.38;;;32.90;32.08
48824;BME280;34640;53.590;10.054;2022-07-25T12:28:50;100117.22;;;32.79;32.30
48824;BME280;34640;53.590;10.054;2022-07-25T12:31:23;100127.28;;;32.54;32.55
48824;BME280;34640;53.590;10.054;2022-07-25T12:33:59;100112.66;;;32.37;32.80
48824;BME280;34640;53.590;10.054;2022-07-25T12:36:32;100118.81;;;32.41;33.39
48824;BME280;34640;53.590;10.054;2022-07-25T12:39:09;100128.03;;;32.57;33.15
48824;BME280;34640;53.590;10.054;2022-07-25T12:41:43;100125.22;;;32.60;32.30
48824;BME280;34640;53.590;10.054;2022-07-25T12:44:17;100118.06;;;32.59;32.22
48824;BME280;34640;53.590;10.054;2022-07-25T12:46:51;100132.22;;;32.42;32.54
48824;BME280;34640;53.590;10.054;2022-07-25T12:49:24;100135.41;;;32.52;32.62
48824;BME280;34640;53.590;10.054;2022-07-25T12:51:57;100131.75;;;32.31;33.12
48824;BME280;34640;53.590;10.054;2022-07-25T12:54:30;100130.78;;;32.34;33.40
48824;BME280;34640;53.590;10.054;2022-07-25T12:57:04;100129.19;;;32.28;33.48
48824;BME280;34640;53.590;10.054;2022-07-25T12:59:38;100137.38;;;32.02;33.73
48824;BME280;34640;53.590;10.054;2022-07-25T13:02:11;100135.75;;;31.98;33.75
48824;BME280;34640;53.590;10.054;2022-07-25T13:04:44;100127.38;;;31.82;34.25
48824;BME280;34640;53.590;10.054;2022-07-25T13:07:19;100123.44;;;31.67;34.63
48824;BME280;34640;53.590;10.054;2022-07-25T13:09:52;100134.56;;;31.56;34.67
48824;BME280;34640;53.590;10.054;2022-07-25T13:12:27;100123.16;;;31.50;35.26
48824;BME280;34640;53.590;10.054;2022-07-25T13:15:01;100128.44;;;31.53;35.83
48824;BME280;34640;53.590;10.054;2022-07-25T13:17:34;100121.88;;;31.60;35.99